Terminal Aerodrome Forecast
Issued by NWS

Home | Current Version | Previous Version | Text Only | Print | Product List | Glossary Off
Versions: 1 2 3 4 5 6 7 8 9 10 11 12 13 14 15

000
FTUS43 KBIS 012327
TAFJMS
TAF
KJMS 012327Z 0200/0224 23011KT P6SM SCT200
     FM020100 20005KT P6SM FEW200
     FM021600 23015G25KT P6SM SCT120
     FM022100 26018G29KT P6SM VCTS SCT100CB=

USA.gov is the U.S. government's official web portal to all federal, state and local government web resources and services.